sensor_id;sensor_type;location;lat;lon;timestamp;P1;durP1;ratioP1;P2;durP2;ratioP2
39924;SDS011;25592;49.986;11.618;2023-09-18T00:02:11;6.47;;;3.97;;
39924;SDS011;25592;49.986;11.618;2023-09-18T00:04:56;5.32;;;3.85;;
39924;SDS011;25592;49.986;11.618;2023-09-18T00:07:42;6.18;;;4.45;;
39924;SDS011;25592;49.986;11.618;2023-09-18T00:10:28;7.35;;;4.63;;
39924;SDS011;25592;49.986;11.618;2023-09-18T00:13:15;5.82;;;4.32;;
39924;SDS011;25592;49.986;11.618;2023-09-18T00:16:00;6.13;;;4.85;;
39924;SDS011;25592;49.986;11.618;2023-09-18T00:18:46;5.53;;;4.32;;
39924;SDS011;25592;49.986;11.618;2023-09-18T00:21:31;6.13;;;4.35;;
39924;SDS011;25592;49.986;11.618;2023-09-18T00:24:17;5.90;;;4.40;;
39924;SDS011;25592;49.986;11.618;2023-09-18T00:27:03;7.75;;;4.32;;
39924;SDS011;25592;49.986;11.618;2023-09-18T00:29:48;4.90;;;3.72;;
39924;SDS011;25592;49.986;11.618;2023-09-18T00:32:33;5.97;;;4.28;;
39924;SDS011;25592;49.986;11.618;2023-09-18T00:35:19;6.85;;;4.45;;
39924;SDS011;25592;49.986;11.618;2023-09-18T00:38:04;6.53;;;4.57;;
39924;SDS011;25592;49.986;11.618;2023-09-18T00:40:52;8.32;;;4.57;;
39924;SDS011;25592;49.986;11.618;2023-09-18T00:43:37;6.95;;;4.45;;
39924;SDS011;25592;49.986;11.618;2023-09-18T00:46:23;6.00;;;3.95;;
39924;SDS011;25592;49.986;11.618;2023-09-18T00:49:09;5.60;;;4.20;;
39924;SDS011;25592;49.986;11.618;2023-09-18T00:51:55;5.45;;;4.30;;
39924;SDS011;25592;49.986;11.618;2023-09-18T00:54:40;6.28;;;4.38;;
39924;SDS011;25592;49.986;11.618;2023-09-18T00:57:27;7.25;;;4.30;;
39924;SDS011;25592;49.986;11.618;2023-09-18T01:00:13;5.55;;;3.97;;
39924;SDS011;25592;49.986;11.618;2023-09-18T01:03:02;5.53;;;4.43;;
39924;SDS011;25592;49.986;11.618;2023-09-18T01:05:49;8.93;;;4.47;;
39924;SDS011;25592;49.986;11.618;2023-09-18T01:08:34;8.65;;;4.47;;
39924;SDS011;25592;49.986;11.618;2023-09-18T01:17:18;7.85;;;4.13;;
39924;SDS011;25592;49.986;11.618;2023-09-18T01:20:05;6.63;;;4.38;;
39924;SDS011;25592;49.986;11.618;2023-09-18T01:22:53;5.13;;;4.05;;
39924;SDS011;25592;49.986;11.618;2023-09-18T01:25:39;6.07;;;4.25;;
39924;SDS011;25592;49.986;11.618;2023-09-18T01:28:24;7.22;;;4.35;;
39924;SDS011;25592;49.986;11.618;2023-09-18T01:31:10;5.47;;;4.07;;
39924;SDS011;25592;49.986;11.618;2023-09-18T01:33:55;6.63;;;4.78;;
39924;SDS011;25592;49.986;11.618;2023-09-18T01:36:43;7.82;;;4.22;;
39924;SDS011;25592;49.986;11.618;2023-09-18T01:39:29;6.55;;;5.10;;
39924;SDS011;25592;49.986;11.618;2023-09-18T01:42:17;5.68;;;4.07;;
39924;SDS011;25592;49.986;11.618;2023-09-18T01:45:02;7.57;;;4.03;;
39924;SDS011;25592;49.986;11.618;2023-09-18T01:47:50;5.68;;;4.03;;
39924;SDS011;25592;49.986;11.618;2023-09-18T01:50:36;5.70;;;4.32;;
39924;SDS011;25592;49.986;11.618;2023-09-18T01:53:22;6.15;;;4.30;;
39924;SDS011;25592;49.986;11.618;2023-09-18T01:56:07;10.00;;;4.40;;
39924;SDS011;25592;49.986;11.618;2023-09-18T01:58:53;6.60;;;4.40;;
39924;SDS011;25592;49.986;11.618;2023-09-18T02:01:39;5.00;;;3.80;;
39924;SDS011;25592;49.986;11.618;2023-09-18T02:04:24;6.70;;;4.55;;
39924;SDS011;25592;49.986;11.618;2023-09-18T02:07:30;5.18;;;3.83;;
39924;SDS011;25592;49.986;11.618;2023-09-18T02:10:16;5.20;;;3.70;;
39924;SDS011;25592;49.986;11.618;2023-09-18T02:13:02;11.45;;;4.97;;
39924;SDS011;25592;49.986;11.618;2023-09-18T02:15:48;7.38;;;4.68;;
39924;SDS011;25592;49.986;11.618;2023-09-18T02:18:34;7.40;;;4.20;;
39924;SDS011;25592;49.986;11.618;2023-09-18T02:21:19;10.07;;;4.80;;
39924;SDS011;25592;49.986;11.618;2023-09-18T02:24:05;5.95;;;4.20;;
39924;SDS011;25592;49.986;11.618;2023-09-18T02:26:51;6.35;;;4.47;;
39924;SDS011;25592;49.986;11.618;2023-09-18T02:29:37;7.32;;;4.68;;
39924;SDS011;25592;49.986;11.618;2023-09-18T02:32:22;9.57;;;5.05;;
39924;SDS011;25592;49.986;11.618;2023-09-18T02:35:08;7.63;;;4.55;;
39924;SDS011;25592;49.986;11.618;2023-09-18T02:37:54;6.57;;;4.00;;
39924;SDS011;25592;49.986;11.618;2023-09-18T02:40:39;7.45;;;5.35;;
39924;SDS011;25592;49.986;11.618;2023-09-18T02:43:24;5.57;;;4.30;;
39924;SDS011;25592;49.986;11.618;2023-09-18T02:46:10;6.35;;;4.18;;
39924;SDS011;25592;49.986;11.618;2023-09-18T02:48:56;5.97;;;4.35;;
39924;SDS011;25592;49.986;11.618;2023-09-18T02:51:41;6.15;;;4.28;;
39924;SDS011;25592;49.986;11.618;2023-09-18T02:54:27;5.45;;;4.07;;
39924;SDS011;25592;49.986;11.618;2023-09-18T02:57:12;6.45;;;4.82;;
39924;SDS011;25592;49.986;11.618;2023-09-18T02:59:57;6.03;;;4.47;;
39924;SDS011;25592;49.986;11.618;2023-09-18T03:02:43;6.07;;;4.47;;
39924;SDS011;25592;49.986;11.618;2023-09-18T03:05:31;5.88;;;4.22;;
39924;SDS011;25592;49.986;11.618;2023-09-18T03:08:16;7.45;;;4.50;;
39924;SDS011;25592;49.986;11.618;2023-09-18T03:11:02;7.47;;;4.57;;
39924;SDS011;25592;49.986;11.618;2023-09-18T03:13:48;7.57;;;5.70;;
39924;SDS011;25592;49.986;11.618;2023-09-18T03:16:33;5.47;;;3.90;;
39924;SDS011;25592;49.986;11.618;2023-09-18T03:19:19;6.03;;;4.43;;
39924;SDS011;25592;49.986;11.618;2023-09-18T03:22:06;6.32;;;4.10;;
39924;SDS011;25592;49.986;11.618;2023-09-18T03:24:52;6.90;;;4.60;;
39924;SDS011;25592;49.986;11.618;2023-09-18T03:27:37;8.25;;;4.68;;
39924;SDS011;25592;49.986;11.618;2023-09-18T03:30:23;6.57;;;4.57;;
39924;SDS011;25592;49.986;11.618;2023-09-18T03:33:09;7.13;;;4.05;;
39924;SDS011;25592;49.986;11.618;2023-09-18T03:35:54;10.55;;;4.72;;
39924;SDS011;25592;49.986;11.618;2023-09-18T03:38:42;5.38;;;3.85;;
39924;SDS011;25592;49.986;11.618;2023-09-18T03:41:28;7.22;;;4.35;;
39924;SDS011;25592;49.986;11.618;2023-09-18T03:44:18;6.00;;;4.30;;
39924;SDS011;25592;49.986;11.618;2023-09-18T03:47:04;5.07;;;3.72;;
39924;SDS011;25592;49.986;11.618;2023-09-18T03:49:49;7.38;;;4.05;;
39924;SDS011;25592;49.986;11.618;2023-09-18T03:52:35;7.55;;;3.75;;
39924;SDS011;25592;49.986;11.618;2023-09-18T03:55:23;5.45;;;3.72;;
39924;SDS011;25592;49.986;11.618;2023-09-18T03:58:09;5.75;;;4.22;;
39924;SDS011;25592;49.986;11.618;2023-09-18T04:00:55;5.50;;;3.63;;
39924;SDS011;25592;49.986;11.618;2023-09-18T04:03:41;9.05;;;3.78;;
39924;SDS011;25592;49.986;11.618;2023-09-18T04:06:35;7.45;;;3.88;;
39924;SDS011;25592;49.986;11.618;2023-09-18T04:09:21;5.35;;;3.60;;
39924;SDS011;25592;49.986;11.618;2023-09-18T04:12:07;5.68;;;3.83;;
39924;SDS011;25592;49.986;11.618;2023-09-18T04:14:52;6.55;;;3.83;;
39924;SDS011;25592;49.986;11.618;2023-09-18T04:17:38;6.38;;;3.95;;
39924;SDS011;25592;49.986;11.618;2023-09-18T04:20:24;6.38;;;3.60;;
39924;SDS011;25592;49.986;11.618;2023-09-18T04:23:17;5.25;;;3.58;;
39924;SDS011;25592;49.986;11.618;2023-09-18T04:26:03;5.18;;;3.50;;
39924;SDS011;25592;49.986;11.618;2023-09-18T04:28:49;5.78;;;3.70;;
39924;SDS011;25592;49.986;11.618;2023-09-18T04:31:34;5.47;;;3.30;;
39924;SDS011;25592;49.986;11.618;2023-09-18T04:34:20;5.65;;;3.63;;
39924;SDS011;25592;49.986;11.618;2023-09-18T04:37:06;5.20;;;3.58;;
39924;SDS011;25592;49.986;11.618;2023-09-18T04:39:52;5.35;;;3.30;;
39924;SDS011;25592;49.986;11.618;2023-09-18T04:42:38;6.13;;;3.80;;
39924;SDS011;25592;49.986;11.618;2023-09-18T04:45:27;5.47;;;3.72;;
39924;SDS011;25592;49.986;11.618;2023-09-18T04:48:13;5.45;;;3.83;;
39924;SDS011;25592;49.986;11.618;2023-09-18T04:50:59;7.53;;;3.60;;
39924;SDS011;25592;49.986;11.618;2023-09-18T04:53:45;5.60;;;3.42;;
39924;SDS011;25592;49.986;11.618;2023-09-18T04:56:30;5.25;;;3.63;;
39924;SDS011;25592;49.986;11.618;2023-09-18T04:59:16;4.32;;;3.15;;
39924;SDS011;25592;49.986;11.618;2023-09-18T05:02:01;5.97;;;3.40;;
39924;SDS011;25592;49.986;11.618;2023-09-18T05:04:47;4.63;;;3.13;;
39924;SDS011;25592;49.986;11.618;2023-09-18T05:07:33;7.20;;;3.70;;
39924;SDS011;25592;49.986;11.618;2023-09-18T05:10:18;5.80;;;3.55;;
39924;SDS011;25592;49.986;11.618;2023-09-18T05:13:04;6.78;;;3.30;;
39924;SDS011;25592;49.986;11.618;2023-09-18T05:15:49;5.57;;;3.15;;
39924;SDS011;25592;49.986;11.618;2023-09-18T05:18:35;4.45;;;2.92;;
39924;SDS011;25592;49.986;11.618;2023-09-18T05:21:22;4.85;;;3.47;;
39924;SDS011;25592;49.986;11.618;2023-09-18T05:24:09;4.40;;;3.25;;
39924;SDS011;25592;49.986;11.618;2023-09-18T05:26:54;5.45;;;3.67;;
39924;SDS011;25592;49.986;11.618;2023-09-18T05:29:40;4.32;;;3.25;;
39924;SDS011;25592;49.986;11.618;2023-09-18T05:32:25;5.20;;;3.08;;
39924;SDS011;25592;49.986;11.618;2023-09-18T05:35:11;4.70;;;3.10;;
39924;SDS011;25592;49.986;11.618;2023-09-18T05:37:58;4.65;;;3.13;;
39924;SDS011;25592;49.986;11.618;2023-09-18T05:40:44;5.78;;;3.05;;
39924;SDS011;25592;49.986;11.618;2023-09-18T05:43:31;3.95;;;3.00;;
39924;SDS011;25592;49.986;11.618;2023-09-18T05:46:16;6.72;;;3.83;;
39924;SDS011;25592;49.986;11.618;2023-09-18T05:49:02;6.72;;;2.95;;
39924;SDS011;25592;49.986;11.618;2023-09-18T05:51:48;5.35;;;3.42;;
39924;SDS011;25592;49.986;11.618;2023-09-18T05:54:33;5.38;;;3.70;;
39924;SDS011;25592;49.986;11.618;2023-09-18T05:57:19;6.18;;;3.15;;
39924;SDS011;25592;49.986;11.618;2023-09-18T06:00:05;4.43;;;2.80;;
39924;SDS011;25592;49.986;11.618;2023-09-18T06:02:50;6.25;;;2.90;;
39924;SDS011;25592;49.986;11.618;2023-09-18T06:05:36;5.65;;;3.88;;
39924;SDS011;25592;49.986;11.618;2023-09-18T06:08:21;6.70;;;3.97;;
39924;SDS011;25592;49.986;11.618;2023-09-18T06:11:08;4.22;;;3.03;;
39924;SDS011;25592;49.986;11.618;2023-09-18T06:13:54;9.45;;;3.90;;
39924;SDS011;25592;49.986;11.618;2023-09-18T06:16:39;11.88;;;3.80;;
39924;SDS011;25592;49.986;11.618;2023-09-18T06:19:25;6.38;;;3.25;;
39924;SDS011;25592;49.986;11.618;2023-09-18T06:22:10;5.68;;;3.25;;
39924;SDS011;25592;49.986;11.618;2023-09-18T06:24:56;4.70;;;3.22;;
39924;SDS011;25592;49.986;11.618;2023-09-18T06:27:41;8.77;;;3.47;;
39924;SDS011;25592;49.986;11.618;2023-09-18T06:30:27;4.85;;;3.40;;
39924;SDS011;25592;49.986;11.618;2023-09-18T06:33:14;8.90;;;3.75;;
39924;SDS011;25592;49.986;11.618;2023-09-18T06:36:00;6.93;;;3.75;;
39924;SDS011;25592;49.986;11.618;2023-09-18T06:38:46;9.38;;;4.72;;
39924;SDS011;25592;49.986;11.618;2023-09-18T06:41:31;8.20;;;3.60;;
39924;SDS011;25592;49.986;11.618;2023-09-18T06:44:17;7.55;;;3.40;;
39924;SDS011;25592;49.986;11.618;2023-09-18T06:47:03;4.60;;;3.25;;
39924;SDS011;25592;49.986;11.618;2023-09-18T06:49:48;9.90;;;3.60;;
39924;SDS011;25592;49.986;11.618;2023-09-18T06:52:34;10.25;;;3.78;;
39924;SDS011;25592;49.986;11.618;2023-09-18T06:55:19;6.05;;;3.45;;
39924;SDS011;25592;49.986;11.618;2023-09-18T06:58:05;8.77;;;3.50;;
39924;SDS011;25592;49.986;11.618;2023-09-18T07:00:50;5.15;;;3.25;;
39924;SDS011;25592;49.986;11.618;2023-09-18T07:03:36;4.53;;;3.05;;
39924;SDS011;25592;49.986;11.618;2023-09-18T07:06:21;9.23;;;3.70;;
39924;SDS011;25592;49.986;11.618;2023-09-18T07:09:07;6.30;;;3.58;;
39924;SDS011;25592;49.986;11.618;2023-09-18T07:11:57;11.32;;;3.45;;
39924;SDS011;25592;49.986;11.618;2023-09-18T07:14:42;6.50;;;3.45;;
39924;SDS011;25592;49.986;11.618;2023-09-18T07:17:28;4.95;;;3.20;;
39924;SDS011;25592;49.986;11.618;2023-09-18T07:20:13;7.00;;;3.53;;
39924;SDS011;25592;49.986;11.618;2023-09-18T07:23:00;7.97;;;3.30;;
39924;SDS011;25592;49.986;11.618;2023-09-18T07:25:47;4.90;;;3.13;;
39924;SDS011;25592;49.986;11.618;2023-09-18T07:28:32;5.93;;;3.28;;
39924;SDS011;25592;49.986;11.618;2023-09-18T07:31:18;6.20;;;3.10;;
39924;SDS011;25592;49.986;11.618;2023-09-18T07:34:03;5.38;;;3.42;;
39924;SDS011;25592;49.986;11.618;2023-09-18T07:36:49;6.75;;;3.53;;
39924;SDS011;25592;49.986;11.618;2023-09-18T07:39:39;7.72;;;3.53;;
39924;SDS011;25592;49.986;11.618;2023-09-18T07:42:27;5.72;;;4.03;;
39924;SDS011;25592;49.986;11.618;2023-09-18T07:45:13;5.05;;;3.25;;
39924;SDS011;25592;49.986;11.618;2023-09-18T07:47:58;9.98;;;3.30;;
39924;SDS011;25592;49.986;11.618;2023-09-18T07:50:43;8.48;;;3.35;;
39924;SDS011;25592;49.986;11.618;2023-09-18T07:53:29;7.68;;;3.03;;
39924;SDS011;25592;49.986;11.618;2023-09-18T07:56:14;6.13;;;3.10;;
39924;SDS011;25592;49.986;11.618;2023-09-18T07:59:00;6.45;;;3.67;;
39924;SDS011;25592;49.986;11.618;2023-09-18T08:01:46;9.30;;;3.38;;
39924;SDS011;25592;49.986;11.618;2023-09-18T08:04:31;4.78;;;3.13;;
39924;SDS011;25592;49.986;11.618;2023-09-18T08:07:17;8.60;;;3.40;;
39924;SDS011;25592;49.986;11.618;2023-09-18T08:10:03;6.13;;;2.95;;
39924;SDS011;25592;49.986;11.618;2023-09-18T08:12:51;5.03;;;3.17;;
39924;SDS011;25592;49.986;11.618;2023-09-18T08:15:37;4.55;;;3.20;;
39924;SDS011;25592;49.986;11.618;2023-09-18T08:18:23;5.95;;;3.20;;
39924;SDS011;25592;49.986;11.618;2023-09-18T08:21:11;7.88;;;3.42;;
39924;SDS011;25592;49.986;11.618;2023-09-18T08:23:58;8.52;;;4.35;;
39924;SDS011;25592;49.986;11.618;2023-09-18T08:26:43;5.40;;;3.53;;
39924;SDS011;25592;49.986;11.618;2023-09-18T08:29:29;5.40;;;3.60;;
39924;SDS011;25592;49.986;11.618;2023-09-18T08:32:14;7.25;;;3.78;;
39924;SDS011;25592;49.986;11.618;2023-09-18T08:35:00;5.38;;;3.60;;
39924;SDS011;25592;49.986;11.618;2023-09-18T08:37:46;6.03;;;3.83;;
39924;SDS011;25592;49.986;11.618;2023-09-18T08:40:33;6.13;;;3.53;;
39924;SDS011;25592;49.986;11.618;2023-09-18T08:43:19;5.60;;;3.72;;
39924;SDS011;25592;49.986;11.618;2023-09-18T08:46:06;5.00;;;3.50;;
39924;SDS011;25592;49.986;11.618;2023-09-18T08:48:52;7.43;;;3.83;;
39924;SDS011;25592;49.986;11.618;2023-09-18T08:51:39;5.32;;;4.03;;
39924;SDS011;25592;49.986;11.618;2023-09-18T08:54:26;8.95;;;3.47;;
39924;SDS011;25592;49.986;11.618;2023-09-18T08:57:13;5.47;;;3.95;;
39924;SDS011;25592;49.986;11.618;2023-09-18T08:59:58;7.18;;;3.72;;
39924;SDS011;25592;49.986;11.618;2023-09-18T09:02:49;5.40;;;4.05;;
39924;SDS011;25592;49.986;11.618;2023-09-18T09:05:37;7.78;;;4.47;;
39924;SDS011;25592;49.986;11.618;2023-09-18T09:08:22;9.10;;;4.28;;
39924;SDS011;25592;49.986;11.618;2023-09-18T09:11:08;8.20;;;3.95;;
39924;SDS011;25592;49.986;11.618;2023-09-18T09:16:56;6.88;;;3.30;;
39924;SDS011;25592;49.986;11.618;2023-09-18T09:19:42;11.60;;;4.60;;
39924;SDS011;25592;49.986;11.618;2023-09-18T09:22:28;7.80;;;3.63;;
39924;SDS011;25592;49.986;11.618;2023-09-18T09:28:05;6.78;;;4.28;;
39924;SDS011;25592;49.986;11.618;2023-09-18T09:30:52;11.77;;;5.07;;
39924;SDS011;25592;49.986;11.618;2023-09-18T09:33:51;7.93;;;4.03;;
39924;SDS011;25592;49.986;11.618;2023-09-18T09:36:51;5.25;;;3.17;;
39924;SDS011;25592;49.986;11.618;2023-09-18T09:39:48;8.27;;;3.30;;
39924;SDS011;25592;49.986;11.618;2023-09-18T09:42:38;11.13;;;4.55;;
39924;SDS011;25592;49.986;11.618;2023-09-18T09:45:25;6.78;;;3.60;;
39924;SDS011;25592;49.986;11.618;2023-09-18T09:48:10;9.95;;;4.05;;
39924;SDS011;25592;49.986;11.618;2023-09-18T09:51:00;10.35;;;4.00;;
39924;SDS011;25592;49.986;11.618;2023-09-18T09:53:46;7.70;;;3.78;;
39924;SDS011;25592;49.986;11.618;2023-09-18T09:56:46;7.25;;;3.97;;
39924;SDS011;25592;49.986;11.618;2023-09-18T09:59:33;6.53;;;3.30;;
39924;SDS011;25592;49.986;11.618;2023-09-18T10:02:19;7.90;;;3.85;;
39924;SDS011;25592;49.986;11.618;2023-09-18T10:05:07;9.50;;;3.72;;
39924;SDS011;25592;49.986;11.618;2023-09-18T10:07:53;8.60;;;3.97;;
39924;SDS011;25592;49.986;11.618;2023-09-18T10:10:45;6.75;;;2.55;;
39924;SDS011;25592;49.986;11.618;2023-09-18T10:13:40;11.93;;;2.72;;
39924;SDS011;25592;49.986;11.618;2023-09-18T10:16:28;9.27;;;2.80;;
39924;SDS011;25592;49.986;11.618;2023-09-18T10:19:19;7.40;;;2.60;;
39924;SDS011;25592;49.986;11.618;2023-09-18T10:22:13;6.07;;;2.38;;
39924;SDS011;25592;49.986;11.618;2023-09-18T10:28:08;9.43;;;2.53;;
39924;SDS011;25592;49.986;11.618;2023-09-18T10:30:57;5.38;;;2.05;;
39924;SDS011;25592;49.986;11.618;2023-09-18T10:33:43;6.70;;;2.38;;
39924;SDS011;25592;49.986;11.618;2023-09-18T10:36:29;9.90;;;3.05;;
39924;SDS011;25592;49.986;11.618;2023-09-18T10:39:18;5.57;;;2.28;;
39924;SDS011;25592;49.986;11.618;2023-09-18T10:42:08;7.15;;;2.63;;
39924;SDS011;25592;49.986;11.618;2023-09-18T10:44:54;6.88;;;2.63;;
39924;SDS011;25592;49.986;11.618;2023-09-18T10:47:40;6.28;;;2.28;;
39924;SDS011;25592;49.986;11.618;2023-09-18T10:50:30;6.68;;;2.50;;
39924;SDS011;25592;49.986;11.618;2023-09-18T10:53:16;8.77;;;2.75;;
39924;SDS011;25592;49.986;11.618;2023-09-18T10:56:04;7.63;;;2.72;;
39924;SDS011;25592;49.986;11.618;2023-09-18T10:58:57;6.20;;;2.70;;
39924;SDS011;25592;49.986;11.618;2023-09-18T11:01:44;7.20;;;1.85;;
39924;SDS011;25592;49.986;11.618;2023-09-18T11:04:32;9.90;;;1.73;;
39924;SDS011;25592;49.986;11.618;2023-09-18T11:07:21;6.15;;;1.70;;
39924;SDS011;25592;49.986;11.618;2023-09-18T11:10:26;5.97;;;1.55;;
39924;SDS011;25592;49.986;11.618;2023-09-18T11:13:11;5.13;;;1.67;;
39924;SDS011;25592;49.986;11.618;2023-09-18T11:15:59;6.18;;;1.80;;
39924;SDS011;25592;49.986;11.618;2023-09-18T11:19:08;6.13;;;2.08;;
39924;SDS011;25592;49.986;11.618;2023-09-18T11:22:05;7.25;;;2.42;;
39924;SDS011;25592;49.986;11.618;2023-09-18T11:24:52;5.43;;;2.30;;
39924;SDS011;25592;49.986;11.618;2023-09-18T11:27:54;8.82;;;3.00;;
39924;SDS011;25592;49.986;11.618;2023-09-18T11:30:48;8.90;;;2.00;;
39924;SDS011;25592;49.986;11.618;2023-09-18T11:33:36;6.88;;;2.17;;
39924;SDS011;25592;49.986;11.618;2023-09-18T11:39:11;7.50;;;2.35;;
39924;SDS011;25592;49.986;11.618;2023-09-18T11:42:06;5.10;;;2.15;;
39924;SDS011;25592;49.986;11.618;2023-09-18T11:44:55;9.75;;;2.22;;
39924;SDS011;25592;49.986;11.618;2023-09-18T11:47:41;5.68;;;2.00;;
39924;SDS011;25592;49.986;11.618;2023-09-18T11:50:28;6.57;;;2.13;;
39924;SDS011;25592;49.986;11.618;2023-09-18T11:53:16;5.32;;;2.10;;
39924;SDS011;25592;49.986;11.618;2023-09-18T11:56:05;7.63;;;2.00;;
39924;SDS011;25592;49.986;11.618;2023-09-18T11:58:59;6.28;;;2.20;;
39924;SDS011;25592;49.986;11.618;2023-09-18T12:01:53;6.47;;;2.38;;
39924;SDS011;25592;49.986;11.618;2023-09-18T12:04:39;6.15;;;2.55;;
39924;SDS011;25592;49.986;11.618;2023-09-18T12:07:24;9.90;;;2.00;;
39924;SDS011;25592;49.986;11.618;2023-09-18T12:10:10;7.07;;;2.63;;
39924;SDS011;25592;49.986;11.618;2023-09-18T12:12:59;6.47;;;2.28;;
39924;SDS011;25592;49.986;11.618;2023-09-18T12:15:45;8.07;;;2.05;;
39924;SDS011;25592;49.986;11.618;2023-09-18T12:18:32;5.70;;;1.83;;
39924;SDS011;25592;49.986;11.618;2023-09-18T12:21:20;4.00;;;1.23;;
39924;SDS011;25592;49.986;11.618;2023-09-18T12:24:05;4.03;;;1.42;;
39924;SDS011;25592;49.986;11.618;2023-09-18T12:26:51;3.17;;;1.63;;
39924;SDS011;25592;49.986;11.618;2023-09-18T12:29:37;3.53;;;1.38;;
39924;SDS011;25592;49.986;11.618;2023-09-18T12:32:23;3.22;;;1.30;;
39924;SDS011;25592;49.986;11.618;2023-09-18T12:35:09;4.85;;;1.48;;
39924;SDS011;25592;49.986;11.618;2023-09-18T12:37:59;3.85;;;1.27;;
39924;SDS011;25592;49.986;11.618;2023-09-18T12:40:45;3.50;;;1.20;;
39924;SDS011;25592;49.986;11.618;2023-09-18T12:43:35;6.15;;;1.20;;
39924;SDS011;25592;49.986;11.618;2023-09-18T12:46:22;7.03;;;1.10;;
39924;SDS011;25592;49.986;11.618;2023-09-18T12:49:18;4.15;;;1.30;;
39924;SDS011;25592;49.986;11.618;2023-09-18T12:52:05;4.15;;;1.40;;
39924;SDS011;25592;49.986;11.618;2023-09-18T12:54:51;4.70;;;1.80;;
39924;SDS011;25592;49.986;11.618;2023-09-18T12:57:40;2.40;;;1.10;;
39924;SDS011;25592;49.986;11.618;2023-09-18T13:00:26;5.97;;;1.27;;
39924;SDS011;25592;49.986;11.618;2023-09-18T13:03:13;6.38;;;1.85;;
39924;SDS011;25592;49.986;11.618;2023-09-18T13:06:12;3.83;;;1.35;;
39924;SDS011;25592;49.986;11.618;2023-09-18T13:09:17;4.93;;;1.45;;
39924;SDS011;25592;49.986;11.618;2023-09-18T13:12:05;3.88;;;1.30;;
39924;SDS011;25592;49.986;11.618;2023-09-18T13:15:01;2.75;;;0.90;;
39924;SDS011;25592;49.986;11.618;2023-09-18T13:17:54;3.35;;;1.10;;
39924;SDS011;25592;49.986;11.618;2023-09-18T13:20:41;5.93;;;1.25;;
39924;SDS011;25592;49.986;11.618;2023-09-18T13:23:28;6.00;;;1.48;;
39924;SDS011;25592;49.986;11.618;2023-09-18T13:26:15;6.18;;;2.00;;
39924;SDS011;25592;49.986;11.618;2023-09-18T13:29:01;5.35;;;1.60;;
39924;SDS011;25592;49.986;11.618;2023-09-18T13:31:46;4.20;;;1.33;;
39924;SDS011;25592;49.986;11.618;2023-09-18T13:34:32;3.38;;;1.42;;
39924;SDS011;25592;49.986;11.618;2023-09-18T13:37:17;11.15;;;2.45;;
39924;SDS011;25592;49.986;11.618;2023-09-18T13:40:05;6.70;;;1.45;;
39924;SDS011;25592;49.986;11.618;2023-09-18T13:42:54;7.60;;;1.60;;
39924;SDS011;25592;49.986;11.618;2023-09-18T13:45:40;3.45;;;1.20;;
39924;SDS011;25592;49.986;11.618;2023-09-18T13:48:26;4.97;;;1.77;;
39924;SDS011;25592;49.986;11.618;2023-09-18T13:51:12;4.35;;;1.30;;
39924;SDS011;25592;49.986;11.618;2023-09-18T13:53:57;6.78;;;1.60;;
39924;SDS011;25592;49.986;11.618;2023-09-18T13:56:43;1.80;;;1.02;;
39924;SDS011;25592;49.986;11.618;2023-09-18T13:59:28;4.32;;;1.75;;
39924;SDS011;25592;49.986;11.618;2023-09-18T14:02:14;9.52;;;1.48;;
39924;SDS011;25592;49.986;11.618;2023-09-18T14:05:00;2.70;;;1.10;;
39924;SDS011;25592;49.986;11.618;2023-09-18T14:07:46;5.28;;;1.55;;
39924;SDS011;25592;49.986;11.618;2023-09-18T14:10:32;4.28;;;1.60;;
39924;SDS011;25592;49.986;11.618;2023-09-18T14:13:18;3.92;;;1.20;;
39924;SDS011;25592;49.986;11.618;2023-09-18T14:16:03;3.92;;;1.27;;
39924;SDS011;25592;49.986;11.618;2023-09-18T14:18:48;4.95;;;1.50;;
39924;SDS011;25592;49.986;11.618;2023-09-18T14:21:34;3.45;;;1.30;;
39924;SDS011;25592;49.986;11.618;2023-09-18T14:24:23;3.05;;;1.00;;
39924;SDS011;25592;49.986;11.618;2023-09-18T14:27:10;5.93;;;1.23;;
39924;SDS011;25592;49.986;11.618;2023-09-18T14:29:57;4.20;;;1.10;;
39924;SDS011;25592;49.986;11.618;2023-09-18T14:32:43;4.05;;;1.15;;
39924;SDS011;25592;49.986;11.618;2023-09-18T14:35:28;4.60;;;1.55;;
39924;SDS011;25592;49.986;11.618;2023-09-18T14:38:14;5.80;;;1.38;;
39924;SDS011;25592;49.986;11.618;2023-09-18T14:40:59;6.72;;;1.20;;
39924;SDS011;25592;49.986;11.618;2023-09-18T14:43:47;7.85;;;1.50;;
39924;SDS011;25592;49.986;11.618;2023-09-18T14:46:33;5.20;;;1.40;;
39924;SDS011;25592;49.986;11.618;2023-09-18T14:49:18;4.10;;;1.50;;
39924;SDS011;25592;49.986;11.618;2023-09-18T14:52:04;5.68;;;1.70;;
39924;SDS011;25592;49.986;11.618;2023-09-18T14:54:49;7.03;;;1.50;;
39924;SDS011;25592;49.986;11.618;2023-09-18T14:57:35;4.60;;;1.30;;
39924;SDS011;25592;49.986;11.618;2023-09-18T15:00:21;4.90;;;1.52;;
39924;SDS011;25592;49.986;11.618;2023-09-18T15:03:06;4.20;;;1.58;;
39924;SDS011;25592;49.986;11.618;2023-09-18T15:05:52;4.07;;;1.77;;
39924;SDS011;25592;49.986;11.618;2023-09-18T15:08:37;6.88;;;1.52;;
39924;SDS011;25592;49.986;11.618;2023-09-18T15:11:23;3.75;;;1.48;;
39924;SDS011;25592;49.986;11.618;2023-09-18T15:14:09;4.78;;;1.60;;
39924;SDS011;25592;49.986;11.618;2023-09-18T15:16:54;5.60;;;1.92;;
39924;SDS011;25592;49.986;11.618;2023-09-18T15:19:40;4.20;;;1.58;;
39924;SDS011;25592;49.986;11.618;2023-09-18T15:22:27;7.68;;;1.73;;
39924;SDS011;25592;49.986;11.618;2023-09-18T15:25:12;5.68;;;2.25;;
39924;SDS011;25592;49.986;11.618;2023-09-18T15:27:58;8.82;;;2.00;;
39924;SDS011;25592;49.986;11.618;2023-09-18T15:30:43;6.03;;;1.40;;
39924;SDS011;25592;49.986;11.618;2023-09-18T15:33:29;6.63;;;1.30;;
39924;SDS011;25592;49.986;11.618;2023-09-18T15:36:14;5.25;;;1.60;;
39924;SDS011;25592;49.986;11.618;2023-09-18T15:39:00;4.30;;;1.20;;
39924;SDS011;25592;49.986;11.618;2023-09-18T15:41:46;3.25;;;1.17;;
39924;SDS011;25592;49.986;11.618;2023-09-18T15:44:31;3.17;;;1.33;;
39924;SDS011;25592;49.986;11.618;2023-09-18T15:47:18;3.83;;;1.15;;
39924;SDS011;25592;49.986;11.618;2023-09-18T15:50:04;3.33;;;1.08;;
39924;SDS011;25592;49.986;11.618;2023-09-18T15:52:51;4.00;;;1.10;;
39924;SDS011;25592;49.986;11.618;2023-09-18T15:55:36;3.95;;;1.42;;
39924;SDS011;25592;49.986;11.618;2023-09-18T15:58:22;5.93;;;1.50;;
39924;SDS011;25592;49.986;11.618;2023-09-18T16:01:08;7.38;;;1.33;;
39924;SDS011;25592;49.986;11.618;2023-09-18T16:03:58;3.83;;;1.17;;
39924;SDS011;25592;49.986;11.618;2023-09-18T16:06:44;3.42;;;1.40;;
39924;SDS011;25592;49.986;11.618;2023-09-18T16:09:31;4.18;;;1.55;;
39924;SDS011;25592;49.986;11.618;2023-09-18T16:12:18;5.65;;;1.73;;
39924;SDS011;25592;49.986;11.618;2023-09-18T16:15:03;4.55;;;2.00;;
39924;SDS011;25592;49.986;11.618;2023-09-18T16:17:49;5.53;;;2.10;;
39924;SDS011;25592;49.986;11.618;2023-09-18T16:20:35;4.07;;;1.70;;
39924;SDS011;25592;49.986;11.618;2023-09-18T16:23:20;3.33;;;1.63;;
39924;SDS011;25592;49.986;11.618;2023-09-18T16:26:06;5.38;;;1.65;;
39924;SDS011;25592;49.986;11.618;2023-09-18T16:28:52;3.22;;;1.30;;
39924;SDS011;25592;49.986;11.618;2023-09-18T16:31:38;5.57;;;1.30;;
39924;SDS011;25592;49.986;11.618;2023-09-18T16:34:23;5.28;;;1.33;;
39924;SDS011;25592;49.986;11.618;2023-09-18T16:37:09;3.58;;;1.30;;
39924;SDS011;25592;49.986;11.618;2023-09-18T16:39:55;3.60;;;1.23;;
39924;SDS011;25592;49.986;11.618;2023-09-18T16:42:40;3.13;;;1.33;;
39924;SDS011;25592;49.986;11.618;2023-09-18T16:45:26;5.40;;;1.23;;
39924;SDS011;25592;49.986;11.618;2023-09-18T16:48:11;4.30;;;1.75;;